Time;durP1;ratioP1;P1;durP2;ratioP2;P2;SDS_P1;SDS_P2;PMS_P1;PMS_P2;Temp;Humidity;BMP_temperature;BMP_pressure;BME280_temperature;BME280_humidity;BME280_pressure;Samples;Min_cycle;Max_cycle;Signal;HPM_P1;HPM_P2
2023/09/29 00:00:17;;;;;;;13.70;7.00;;;;;;;16.68;71.50;97301.52;111739;1244;22551;-68
2023/09/29 00:03:08;;;;;;;8.00;6.60;;;;;;;16.62;71.40;97299.29;111738;1244;22488;-68
2023/09/29 00:05:37;;;;;;;8.50;6.50;;;;;;;16.57;71.45;97301.48;111747;1243;22495;-68
2023/09/29 00:08:07;;;;;;;9.50;6.80;;;;;;;16.56;71.42;97303.39;111771;1244;22726;-68
2023/09/29 00:10:39;;;;;;;8.00;6.60;;;;;;;16.56;71.31;97299.20;111765;1244;22515;-68
2023/09/29 00:13:07;;;;;;;9.10;6.00;;;;;;;16.62;71.39;97300.48;111770;1238;22564;-68
2023/09/29 00:15:36;;;;;;;11.60;6.70;;;;;;;16.63;71.17;97302.50;111776;1244;22566;-67
2023/09/29 00:18:07;;;;;;;12.20;6.40;;;;;;;16.55;71.17;97297.55;111755;1244;22480;-67
2023/09/29 00:20:36;;;;;;;9.70;6.30;;;;;;;16.50;71.15;97298.20;111777;1244;22525;-68
2023/09/29 00:23:05;;;;;;;11.20;7.10;;;;;;;16.47;71.16;97295.77;111737;1244;22594;-67
2023/09/29 00:25:33;;;;;;;9.80;6.20;;;;;;;16.43;71.20;97295.78;111759;1244;22512;-68
2023/09/29 00:28:01;;;;;;;12.00;6.50;;;;;;;16.40;71.12;97288.98;111774;1244;22510;-68
2023/09/29 00:30:30;;;;;;;11.80;7.30;;;;;;;16.40;71.08;97287.66;111779;1244;23347;-68
2023/09/29 00:32:59;;;;;;;9.50;6.40;;;;;;;16.43;71.15;97287.75;111746;1244;22481;-68
2023/09/29 00:35:28;;;;;;;8.70;6.40;;;;;;;16.43;71.02;97286.02;111744;1244;22520;-68
2023/09/29 00:37:59;;;;;;;11.00;6.40;;;;;;;16.43;70.93;97287.48;111798;1244;22520;-68
2023/09/29 00:40:29;;;;;;;10.20;6.00;;;;;;;16.46;70.87;97282.83;111794;1229;23339;-68
2023/09/29 00:42:58;;;;;;;12.60;6.90;;;;;;;16.49;70.76;97287.20;111770;1244;24882;-68
2023/09/29 00:45:29;;;;;;;10.10;7.00;;;;;;;16.47;70.58;97286.39;111765;1244;22503;-69
2023/09/29 00:48:04;;;;;;;;;;;;;;;16.50;70.60;97283.50;111830;1244;22487;-68
2023/09/29 00:50:35;;;;;;;8.90;6.30;;;;;;;16.45;70.44;97282.14;111789;1244;22528;-67
2023/09/29 00:53:12;;;;;;;7.60;5.90;;;;;;;16.45;70.57;97280.38;111748;1244;22665;-68
2023/09/29 00:55:42;;;;;;;9.10;6.40;;;;;;;16.43;70.52;97281.48;111770;1244;22521;-67
2023/09/29 00:58:12;;;;;;;9.30;6.80;;;;;;;16.41;70.41;97279.49;111833;1238;22495;-67
2023/09/29 01:00:41;;;;;;;8.80;6.40;;;;;;;16.40;70.42;97284.23;111780;1244;22508;-67
2023/09/29 01:03:15;;;;;;;8.50;6.10;;;;;;;16.38;70.37;97283.14;111723;1244;22734;-67
2023/09/29 01:05:49;;;;;;;11.30;6.50;;;;;;;16.38;70.38;97280.15;111806;1244;22508;-68
2023/09/29 01:08:20;;;;;;;9.60;6.70;;;;;;;16.40;70.37;97280.92;111744;1239;22505;-68
2023/09/29 01:10:50;;;;;;;9.40;6.60;;;;;;;16.36;70.33;97285.27;111827;1244;22515;-67
2023/09/29 01:13:18;;;;;;;10.50;6.50;;;;;;;16.33;70.39;97288.13;111776;1244;27000;-67
2023/09/29 01:15:46;;;;;;;10.90;6.50;;;;;;;16.30;70.50;97289.34;111768;1244;22503;-68
2023/09/29 01:18:16;;;;;;;8.60;6.60;;;;;;;16.28;70.54;97289.87;111788;1244;22516;-68
2023/09/29 01:20:43;;;;;;;;;;;;;;;16.25;70.43;97290.09;111809;1244;24394;-68
2023/09/29 01:23:14;;;;;;;9.30;6.40;;;;;;;16.22;70.49;97288.87;111767;1244;22485;-69
2023/09/29 01:25:43;;;;;;;10.80;7.10;;;;;;;16.20;70.59;97289.30;111761;1244;22496;-68
2023/09/29 01:28:12;;;;;;;9.50;6.30;;;;;;;16.16;70.65;97288.08;111860;1244;23363;-68
2023/09/29 01:30:42;;;;;;;9.50;7.10;;;;;;;16.15;70.65;97284.55;111784;1244;25359;-68
2023/09/29 01:33:12;;;;;;;11.60;6.70;;;;;;;16.15;70.76;97289.96;111792;1244;23462;-67
2023/09/29 01:35:42;;;;;;;10.30;6.50;;;;;;;16.12;70.83;97286.60;111766;1244;23744;-68
2023/09/29 01:38:12;;;;;;;10.00;6.50;;;;;;;16.09;70.89;97283.83;111785;1244;22512;-68
2023/09/29 01:40:45;;;;;;;10.70;7.40;;;;;;;16.09;71.00;97288.77;111804;1244;24195;-69
2023/09/29 01:43:13;;;;;;;8.20;6.70;;;;;;;16.08;70.99;97288.58;111771;1244;22534;-68
2023/09/29 01:45:41;;;;;;;9.40;6.60;;;;;;;16.08;71.06;97285.20;111800;1244;26468;-68
2023/09/29 01:48:11;;;;;;;10.40;6.90;;;;;;;16.09;71.02;97287.92;111790;1244;25248;-68
2023/09/29 01:50:40;;;;;;;10.10;6.50;;;;;;;16.05;71.00;97288.03;111805;1244;22508;-68
2023/09/29 01:53:11;;;;;;;10.40;6.90;;;;;;;15.99;71.04;97289.99;111761;1244;25786;-68
2023/09/29 01:55:40;;;;;;;9.00;7.50;;;;;;;15.95;71.12;97299.29;111835;1244;23460;-68
2023/09/29 01:58:09;;;;;;;10.60;6.80;;;;;;;15.88;71.20;97295.86;111806;1244;22513;-68
2023/09/29 02:00:38;;;;;;;8.90;6.20;;;;;;;15.82;71.31;97297.05;111773;1244;25362;-68
2023/09/29 02:03:07;;;;;;;14.20;7.50;;;;;;;15.79;71.41;97298.34;111803;1244;26244;-68
2023/09/29 02:05:38;;;;;;;9.60;7.20;;;;;;;15.76;71.40;97294.80;111868;1244;22504;-68
2023/09/29 02:08:11;;;;;;;9.60;6.80;;;;;;;15.76;71.60;97297.48;111853;1244;26563;-68
2023/09/29 02:10:40;;;;;;;10.30;6.70;;;;;;;15.75;71.58;97294.55;111864;1244;22515;-68
2023/09/29 02:13:09;;;;;;;10.30;7.00;;;;;;;15.75;71.62;97297.75;111821;1244;24227;-68
2023/09/29 02:15:37;;;;;;;9.20;7.10;;;;;;;15.71;71.64;97298.73;111836;1244;22913;-68
2023/09/29 02:18:07;;;;;;;8.10;7.00;;;;;;;15.67;71.73;97291.86;111839;1244;22520;-68
2023/09/29 02:20:41;;;;;;;10.40;7.30;;;;;;;15.66;71.81;97296.69;111851;1244;22559;-68
2023/09/29 02:23:09;;;;;;;9.00;6.90;;;;;;;15.66;71.88;97301.69;111808;1244;22510;-69
2023/09/29 02:25:39;;;;;;;10.10;6.20;;;;;;;15.68;71.88;97304.09;111841;1244;25477;-68
2023/09/29 02:28:09;;;;;;;9.70;6.50;;;;;;;15.68;71.94;97304.79;111800;1244;22604;-68
2023/09/29 02:30:39;;;;;;;11.50;6.90;;;;;;;15.72;71.89;97306.79;111836;1244;22739;-68
2023/09/29 02:33:07;;;;;;;13.10;7.20;;;;;;;15.71;71.78;97310.17;111813;1244;24236;-68
2023/09/29 02:35:35;;;;;;;9.10;6.50;;;;;;;15.72;71.79;97310.38;111789;1244;22512;-68
2023/09/29 02:38:06;;;;;;;11.80;7.00;;;;;;;15.73;71.75;97309.28;111841;1244;22489;-68
2023/09/29 02:40:35;;;;;;;10.90;6.60;;;;;;;15.72;71.76;97305.50;111757;1244;22495;-68
2023/09/29 02:43:05;;;;;;;11.00;7.70;;;;;;;15.73;71.63;97309.45;111750;1244;26343;-68
2023/09/29 02:45:33;;;;;;;;;;;;;;;15.74;71.63;97306.75;111817;1244;22508;-68
2023/09/29 02:48:02;;;;;;;7.70;6.50;;;;;;;15.74;71.69;97309.33;111818;1244;22503;-68
2023/09/29 02:50:34;;;;;;;11.30;7.70;;;;;;;15.74;71.59;97312.69;111856;1244;23622;-68
2023/09/29 02:53:05;;;;;;;10.30;6.80;;;;;;;15.68;71.53;97309.27;111818;1244;22505;-68
2023/09/29 02:55:34;;;;;;;11.60;7.40;;;;;;;15.65;71.62;97304.31;111865;1244;22610;-68
2023/09/29 02:58:04;;;;;;;12.30;7.10;;;;;;;15.62;71.67;97301.08;111841;1244;23979;-68
2023/09/29 03:00:32;;;;;;;10.80;7.10;;;;;;;15.58;71.76;97303.36;111860;1244;23789;-68
2023/09/29 03:03:00;;;;;;;11.40;7.40;;;;;;;15.51;71.85;97300.56;111833;1244;24288;-69
2023/09/29 03:05:32;;;;;;;11.00;6.90;;;;;;;15.44;71.99;97300.66;111868;1244;22495;-69
2023/09/29 03:08:01;;;;;;;12.00;6.90;;;;;;;15.37;72.21;97296.19;111831;1244;22627;-68
2023/09/29 03:10:29;;;;;;;11.70;6.80;;;;;;;15.34;72.25;97296.23;111836;1244;22496;-68
2023/09/29 03:12:58;;;;;;;9.00;7.30;;;;;;;15.34;72.42;97299.48;111793;1244;26457;-69
2023/09/29 03:15:28;;;;;;;10.10;7.10;;;;;;;15.30;72.45;97297.29;111857;1244;22947;-68
2023/09/29 03:17:57;;;;;;;9.90;7.40;;;;;;;15.30;72.63;97297.95;111858;1244;23046;-68
2023/09/29 03:20:25;;;;;;;10.70;7.40;;;;;;;15.33;72.62;97295.59;111854;1244;22509;-69
2023/09/29 03:22:57;;;;;;;9.00;6.90;;;;;;;15.33;72.61;97298.58;111824;1244;22535;-69
2023/09/29 03:25:25;;;;;;;12.10;7.80;;;;;;;15.33;72.65;97293.56;111883;1244;22479;-69
2023/09/29 03:27:53;;;;;;;11.80;7.60;;;;;;;15.32;72.59;97292.78;111846;1244;22504;-69
2023/09/29 03:30:22;;;;;;;9.10;6.70;;;;;;;15.31;72.59;97295.51;111882;1244;22965;-69
2023/09/29 03:32:52;;;;;;;10.80;6.80;;;;;;;15.33;72.66;97292.64;111811;1244;22488;-69
2023/09/29 03:35:20;;;;;;;9.80;6.80;;;;;;;15.33;72.67;97295.31;111827;1244;22580;-69
2023/09/29 03:37:49;;;;;;;9.30;6.60;;;;;;;15.37;72.63;97294.16;111788;1244;24268;-69
2023/09/29 03:40:19;;;;;;;;;;;;;;;15.37;72.61;97296.34;111832;1244;24960;-69
2023/09/29 03:42:48;;;;;;;12.50;8.10;;;;;;;15.35;72.58;97295.36;111788;1244;24255;-69
2023/09/29 03:45:16;;;;;;;11.20;7.00;;;;;;;15.32;72.56;97295.83;111885;1239;22515;-69
2023/09/29 03:47:46;;;;;;;8.20;6.80;;;;;;;15.29;72.63;97297.05;111843;1244;22542;-69
2023/09/29 03:50:15;;;;;;;9.20;6.90;;;;;;;15.28;72.73;97295.91;111826;1244;22605;-69
2023/09/29 03:52:45;;;;;;;10.30;6.40;;;;;;;15.29;72.68;97291.96;111754;1244;23987;-69
2023/09/29 03:55:14;;;;;;;10.40;7.00;;;;;;;15.31;72.67;97289.25;111813;1244;22492;-69
2023/09/29 03:57:45;;;;;;;9.00;7.30;;;;;;;15.32;72.62;97292.88;111801;1244;23244;-67
2023/09/29 04:00:16;;;;;;;10.20;7.10;;;;;;;15.30;72.66;97291.15;111805;1244;25356;-68
2023/09/29 04:02:49;;;;;;;9.50;6.80;;;;;;;15.32;72.62;97289.73;111748;1244;22543;-69
2023/09/29 04:05:20;;;;;;;13.10;7.60;;;;;;;15.32;72.54;97293.48;111834;1244;22518;-69
2023/09/29 04:07:49;;;;;;;9.80;7.30;;;;;;;15.32;72.54;97294.27;111816;1244;26432;-69
2023/09/29 04:10:18;;;;;;;11.90;7.30;;;;;;;15.33;72.56;97296.92;111786;1244;22530;-69
2023/09/29 04:12:46;;;;;;;11.80;7.40;;;;;;;15.31;72.49;97291.98;111796;1244;25225;-69
2023/09/29 04:15:15;;;;;;;11.10;7.10;;;;;;;15.34;72.59;97294.79;111806;1244;25477;-69
2023/09/29 04:17:44;;;;;;;11.80;7.10;;;;;;;15.36;72.46;97296.89;111768;1244;22515;-68
2023/09/29 04:20:13;;;;;;;11.10;7.20;;;;;;;15.35;72.39;97298.84;111824;1244;25282;-68
2023/09/29 04:22:42;;;;;;;11.60;7.20;;;;;;;15.32;72.38;97295.98;111790;1244;25010;-68
2023/09/29 04:25:11;;;;;;;9.90;7.40;;;;;;;15.29;72.34;97296.46;111796;1238;22535;-68
2023/09/29 04:27:40;;;;;;;9.00;6.80;;;;;;;15.32;72.42;97294.70;111856;1244;22536;-69
2023/09/29 04:30:12;;;;;;;10.20;6.70;;;;;;;15.30;72.35;97294.83;111809;1244;23828;-68
2023/09/29 04:32:41;;;;;;;8.90;6.50;;;;;;;15.27;72.37;97295.27;111820;1244;23962;-68
2023/09/29 04:35:11;;;;;;;10.90;6.70;;;;;;;15.24;72.41;97295.00;111824;1244;22574;-69
2023/09/29 04:37:40;;;;;;;11.00;7.20;;;;;;;15.27;72.37;97296.49;111868;1244;22545;-68
2023/09/29 04:40:11;;;;;;;12.10;7.20;;;;;;;15.27;72.46;97293.41;111826;1244;22953;-69
2023/09/29 04:42:40;;;;;;;9.50;7.40;;;;;;;15.22;72.37;97291.56;111789;1243;24235;-69
2023/09/29 04:45:09;;;;;;;10.40;6.70;;;;;;;15.18;72.51;97290.81;111800;1244;22617;-68
2023/09/29 04:47:39;;;;;;;;;;;;;;;15.16;72.47;97283.46;111799;1244;25323;-68
2023/09/29 04:50:10;;;;;;;11.70;7.10;;;;;;;15.17;72.65;97286.61;111828;1244;23002;-69
2023/09/29 04:52:39;;;;;;;8.50;6.60;;;;;;;15.24;72.73;97290.56;111770;1244;22505;-69
2023/09/29 04:55:09;;;;;;;13.90;6.60;;;;;;;15.36;72.66;97287.53;111818;1244;22641;-69
2023/09/29 04:57:38;;;;;;;10.20;6.90;;;;;;;15.43;72.49;97290.31;111808;1244;25333;-68
2023/09/29 05:00:09;;;;;;;11.90;7.60;;;;;;;15.52;72.57;97290.45;111799;1244;22516;-68
2023/09/29 05:02:38;;;;;;;10.90;6.90;;;;;;;15.61;72.67;97290.62;111775;1244;23142;-69
2023/09/29 05:05:09;;;;;;;11.20;6.80;;;;;;;15.73;72.63;97290.14;111791;1244;23308;-68
2023/09/29 05:07:37;;;;;;;10.60;7.10;;;;;;;15.85;72.67;97290.27;111813;1244;22503;-69
2023/09/29 05:10:10;;;;;;;9.00;6.40;;;;;;;15.99;72.49;97289.67;111773;1244;22530;-69
2023/09/29 05:12:39;;;;;;;7.80;6.10;;;;;;;16.14;72.48;97287.44;111786;1244;22517;-68
2023/09/29 05:15:11;;;;;;;9.50;6.30;;;;;;;16.31;72.17;97285.11;111795;1244;22993;-68
2023/09/29 05:17:40;;;;;;;8.30;6.50;;;;;;;16.51;72.28;97286.52;111847;1244;25262;-69
2023/09/29 05:20:11;;;;;;;9.30;6.40;;;;;;;16.74;72.03;97286.87;111807;1244;23350;-69
2023/09/29 05:22:42;;;;;;;11.00;6.30;;;;;;;16.89;71.72;97286.92;111823;1244;22496;-68
2023/09/29 05:25:14;;;;;;;9.30;6.40;;;;;;;17.08;71.29;97287.23;111792;1244;22956;-69
2023/09/29 05:27:42;;;;;;;8.90;6.80;;;;;;;17.31;71.15;97287.05;111804;1244;27581;-69
2023/09/29 05:30:12;;;;;;;8.00;6.40;;;;;;;17.53;70.61;97287.99;111789;1244;22623;-69
2023/09/29 05:32:41;;;;;;;14.10;6.50;;;;;;;17.70;70.33;97284.58;111762;1244;25048;-70
2023/09/29 05:35:10;;;;;;;9.50;6.50;;;;;;;17.88;69.75;97289.42;111796;1244;22501;-69
2023/09/29 05:37:39;;;;;;;9.20;6.30;;;;;;;18.03;69.43;97285.60;111786;1244;22504;-69
2023/09/29 05:40:10;;;;;;;8.40;6.50;;;;;;;18.17;68.93;97296.77;111810;1244;25410;-69
2023/09/29 05:42:38;;;;;;;12.00;6.50;;;;;;;18.36;68.86;97296.46;111833;1244;22697;-69
2023/09/29 05:45:10;;;;;;;11.50;6.70;;;;;;;18.52;68.47;97295.23;111783;1244;24241;-69
2023/09/29 05:47:38;;;;;;;8.50;6.50;;;;;;;18.64;67.88;97294.05;111852;1244;22589;-70
2023/09/29 05:50:08;;;;;;;8.30;6.30;;;;;;;18.66;67.72;97298.57;111805;1244;24028;-69
2023/09/29 05:52:37;;;;;;;9.30;6.00;;;;;;;18.73;67.39;97297.48;111742;1244;25367;-69
2023/09/29 05:55:08;;;;;;;13.00;6.50;;;;;;;18.85;67.39;97298.34;111778;1244;24191;-69
2023/09/29 05:57:37;;;;;;;8.70;5.40;;;;;;;19.13;67.46;97297.80;111848;1244;22526;-69
2023/09/29 06:00:13;;;;;;;7.40;5.90;;;;;;;19.46;67.28;97300.80;111784;1244;22508;-69
2023/09/29 06:02:41;;;;;;;9.10;6.30;;;;;;;19.52;66.00;97303.13;111778;1244;22508;-69
2023/09/29 06:05:12;;;;;;;8.30;5.60;;;;;;;19.49;65.73;97302.37;111798;1244;22503;-69
2023/09/29 06:07:41;;;;;;;10.80;6.10;;;;;;;19.40;65.42;97299.09;111768;1244;22535;-69
2023/09/29 06:10:11;;;;;;;8.40;5.10;;;;;;;19.63;65.96;97304.68;111770;1244;22488;-69
2023/09/29 06:12:40;;;;;;;8.10;6.00;;;;;;;19.73;64.86;97303.91;111794;1244;25270;-69
2023/09/29 06:15:10;;;;;;;9.80;6.60;;;;;;;19.53;64.46;97305.19;111803;1244;22499;-69
2023/09/29 06:17:39;;;;;;;8.60;5.80;;;;;;;19.59;64.79;97303.15;111792;1244;22560;-69
2023/09/29 06:20:09;;;;;;;11.30;5.90;;;;;;;19.76;64.61;97307.80;111803;1244;22504;-69
2023/09/29 06:22:42;;;;;;;8.70;6.30;;;;;;;20.00;64.24;97309.95;111834;1238;22562;-69
2023/09/29 06:25:14;;;;;;;9.70;5.80;;;;;;;20.24;63.62;97309.98;111729;1244;22493;-70
2023/09/29 06:27:46;;;;;;;10.60;5.80;;;;;;;20.53;63.43;97309.03;111765;1244;22492;-68
2023/09/29 06:30:17;;;;;;;11.90;6.10;;;;;;;20.80;62.97;97315.14;111592;1244;22536;-68
2023/09/29 06:32:47;;;;;;;11.00;5.60;;;;;;;21.15;63.13;97315.19;111744;1244;24210;-68
2023/09/29 06:35:17;;;;;;;9.10;5.50;;;;;;;21.66;62.70;97310.45;111655;1244;26551;-68
2023/09/29 06:37:47;;;;;;;11.50;5.70;;;;;;;22.11;61.98;97312.33;111784;1244;22570;-68
2023/09/29 06:40:16;;;;;;;10.90;5.60;;;;;;;22.41;61.20;97315.78;111772;1244;22500;-69
2023/09/29 06:42:50;;;;;;;9.20;5.90;;;;;;;22.47;60.16;97319.06;111726;1244;22738;-68
2023/09/29 06:45:19;;;;;;;7.80;5.40;;;;;;;22.31;59.34;97316.45;111762;1244;22523;-69
2023/09/29 06:47:48;;;;;;;9.40;6.30;;;;;;;22.20;59.67;97322.34;111770;1244;25407;-68
2023/09/29 06:50:17;;;;;;;10.10;5.90;;;;;;;22.13;58.39;97325.59;111767;1244;22598;-69
2023/09/29 06:52:48;;;;;;;8.60;5.20;;;;;;;21.82;58.32;97328.52;111729;1244;28207;-69
2023/09/29 06:55:19;;;;;;;9.60;5.60;;;;;;;21.54;57.89;97329.48;111773;1244;22583;-69
2023/09/29 06:57:48;;;;;;;7.60;5.70;;;;;;;21.52;58.65;97333.56;111740;1244;25354;-69
2023/09/29 07:00:20;;;;;;;12.60;5.40;;;;;;;21.55;57.85;97330.98;111775;1244;22480;-69
2023/09/29 07:02:49;;;;;;;8.10;5.70;;;;;;;21.22;57.29;97332.68;111746;1244;22577;-68
2023/09/29 07:05:18;;;;;;;9.10;5.80;;;;;;;20.97;57.71;97334.49;111790;1244;24224;-69
2023/09/29 07:07:47;;;;;;;8.40;5.40;;;;;;;20.77;57.91;97333.36;111781;1244;22558;-69
2023/09/29 07:10:17;;;;;;;12.50;6.60;;;;;;;20.61;58.16;97335.83;111762;1244;23364;-70
2023/09/29 07:12:45;;;;;;;;;;;;;;;20.62;58.85;97339.94;111725;1244;22673;-69
2023/09/29 07:15:16;;;;;;;7.70;5.20;;;;;;;20.83;59.19;97340.20;111680;1244;22522;-69
2023/09/29 07:17:45;;;;;;;14.10;6.10;;;;;;;21.07;59.44;97342.99;111712;1236;24263;-69
2023/09/29 07:20:13;;;;;;;8.00;5.40;;;;;;;21.16;59.15;97343.92;111750;1244;22509;-70
2023/09/29 07:22:41;;;;;;;9.30;6.00;;;;;;;21.23;59.37;97341.41;111705;1244;22492;-70
2023/09/29 07:25:11;;;;;;;10.50;5.10;;;;;;;21.04;58.67;97341.23;111777;1244;24330;-69
2023/09/29 07:27:40;;;;;;;9.00;6.00;;;;;;;20.81;59.27;97345.70;111727;1244;22531;-70
2023/09/29 07:30:10;;;;;;;8.70;5.70;;;;;;;20.83;59.82;97343.36;111768;1244;22504;-70
2023/09/29 07:32:41;;;;;;;8.20;5.80;;;;;;;20.98;60.26;97343.02;111739;1244;22502;-70
2023/09/29 07:35:10;;;;;;;9.60;6.10;;;;;;;21.11;60.49;97342.83;111723;1244;22614;-70
2023/09/29 07:37:39;;;;;;;7.20;5.90;;;;;;;21.30;60.65;97344.87;111695;1244;22513;-69
2023/09/29 07:40:10;;;;;;;8.90;6.10;;;;;;;21.50;60.61;97341.13;111540;1244;227432;-70
2023/09/29 07:42:39;;;;;;;9.70;6.00;;;;;;;21.66;60.88;97342.77;111727;1244;25344;-70
2023/09/29 07:45:09;;;;;;;6.40;5.70;;;;;;;21.84;60.77;97341.58;111784;1244;26391;-70
2023/09/29 07:47:41;;;;;;;8.60;5.70;;;;;;;21.98;60.43;97341.94;111769;1244;22492;-70
2023/09/29 07:50:10;;;;;;;9.30;5.70;;;;;;;22.05;60.10;97346.05;111762;1244;22513;-70
2023/09/29 07:52:39;;;;;;;9.60;5.70;;;;;;;22.06;59.79;97350.96;111750;1244;22499;-70
2023/09/29 07:55:10;;;;;;;10.70;6.70;;;;;;;22.14;59.83;97349.15;111789;1244;22476;-70
2023/09/29 07:57:39;;;;;;;7.70;6.20;;;;;;;22.23;59.66;97348.75;111767;1244;22512;-70
2023/09/29 08:00:11;;;;;;;11.40;5.00;;;;;;;22.31;59.85;97344.84;111781;1240;22506;-70
2023/09/29 08:02:42;;;;;;;7.40;5.90;;;;;;;22.44;59.67;97348.74;111712;1244;22563;-70
2023/09/29 08:05:12;;;;;;;10.40;6.40;;;;;;;22.47;59.25;97347.60;111823;1244;22557;-71
2023/09/29 08:07:41;;;;;;;8.50;5.70;;;;;;;22.46;59.14;97346.67;111758;1244;22628;-70
2023/09/29 08:10:11;;;;;;;10.40;6.10;;;;;;;22.45;59.04;97345.33;111753;1244;22506;-71
2023/09/29 08:12:39;;;;;;;12.30;5.50;;;;;;;22.46;58.59;97345.02;111721;1244;25439;-69
2023/09/29 08:15:13;;;;;;;9.40;5.90;;;;;;;22.43;59.24;97347.87;111772;1244;24240;-69
2023/09/29 08:17:41;;;;;;;8.60;5.20;;;;;;;22.50;58.45;97348.70;111787;1244;22523;-69
2023/09/29 08:20:14;;;;;;;12.80;5.90;;;;;;;22.49;58.83;97347.91;111779;1244;22550;-68
2023/09/29 08:22:43;;;;;;;9.10;6.20;;;;;;;22.61;58.12;97348.11;111759;1244;25226;-69
2023/09/29 08:25:12;;;;;;;11.50;5.90;;;;;;;22.70;58.47;97351.43;111762;1244;22517;-69
2023/09/29 08:27:40;;;;;;;9.00;5.90;;;;;;;22.86;58.14;97351.40;111743;1244;22520;-69
2023/09/29 08:30:10;;;;;;;7.30;6.00;;;;;;;22.92;57.94;97347.40;111729;1244;22522;-70
2023/09/29 08:32:42;;;;;;;7.90;5.90;;;;;;;22.98;57.62;97350.33;111691;1244;22515;-70
2023/09/29 08:35:13;;;;;;;10.10;6.10;;;;;;;22.95;57.65;97350.77;111778;1244;25321;-70
2023/09/29 08:37:41;;;;;;;9.00;5.80;;;;;;;22.99;57.66;97348.19;111737;1244;22521;-70
2023/09/29 08:40:13;;;;;;;10.40;5.60;;;;;;;23.07;57.20;97344.85;111706;1244;22538;-70
2023/09/29 08:42:46;;;;;;;12.30;6.60;;;;;;;23.07;57.56;97349.80;111738;1244;25334;-70
2023/09/29 08:45:14;;;;;;;7.90;5.30;;;;;;;23.24;57.67;97351.70;111720;1244;25382;-70
2023/09/29 08:47:47;;;;;;;7.20;5.30;;;;;;;23.41;57.49;97348.88;111684;1244;26518;-70
2023/09/29 08:50:17;;;;;;;8.80;5.90;;;;;;;23.53;57.15;97346.80;111736;1244;22548;-69
2023/09/29 08:52:49;;;;;;;8.20;5.20;;;;;;;23.62;57.05;97348.25;111643;1244;25194;-70
2023/09/29 08:55:18;;;;;;;7.50;5.10;;;;;;;23.73;56.85;97346.14;111708;1244;24782;-70
2023/09/29 08:57:46;;;;;;;9.10;5.20;;;;;;;23.83;56.84;97343.79;111725;1244;22576;-70
2023/09/29 09:00:17;;;;;;;7.60;5.60;;;;;;;23.99;56.43;97344.75;111732;1244;25369;-70
2023/09/29 09:02:47;;;;;;;10.80;5.20;;;;;;;24.04;55.99;97341.23;111775;1244;22493;-70
2023/09/29 09:05:16;;;;;;;8.30;5.40;;;;;;;24.04;55.52;97342.15;111776;1244;22492;-70
2023/09/29 09:07:44;;;;;;;10.30;5.60;;;;;;;24.11;55.65;97343.34;111778;1244;22497;-70
2023/09/29 09:10:13;;;;;;;11.90;5.00;;;;;;;24.19;55.60;97340.30;111747;1244;22530;-71
2023/09/29 09:12:43;;;;;;;10.20;5.40;;;;;;;24.24;55.49;97335.79;111709;1244;24569;-70
2023/09/29 09:15:12;;;;;;;7.70;5.60;;;;;;;24.36;55.56;97336.25;111769;1244;24195;-70
2023/09/29 09:17:40;;;;;;;10.00;5.70;;;;;;;24.35;55.40;97338.23;111746;1244;22541;-71
2023/09/29 09:20:11;;;;;;;7.60;5.10;;;;;;;24.34;54.86;97343.64;111757;1244;22518;-71
2023/09/29 09:22:40;;;;;;;9.60;5.50;;;;;;;24.22;54.51;97341.48;111702;1244;22484;-71
2023/09/29 09:25:11;;;;;;;7.30;5.00;;;;;;;24.14;54.80;97340.25;111647;1244;25374;-71
2023/09/29 09:27:41;;;;;;;10.80;5.30;;;;;;;24.08;54.75;97340.98;111663;1244;22489;-71
2023/09/29 09:30:23;;;;;;;7.40;5.20;;;;;;;24.02;54.85;97336.70;111743;1244;23773;-71
2023/09/29 09:32:52;;;;;;;9.10;5.70;;;;;;;23.96;54.47;97339.73;111816;1244;22519;-71
2023/09/29 09:35:28;;;;;;;11.70;5.50;;;;;;;23.82;53.99;97338.80;111869;1244;22578;-71
2023/09/29 09:38:00;;;;;;;8.90;5.80;;;;;;;23.75;54.47;97339.61;111717;1244;22499;-71
2023/09/29 09:40:31;;;;;;;12.10;5.70;;;;;;;23.80;54.91;97337.75;111764;1244;24234;-71
2023/09/29 09:43:03;;;;;;;7.70;5.50;;;;;;;23.95;55.24;97333.66;111731;1244;24246;-72
2023/09/29 09:45:37;;;;;;;8.30;5.30;;;;;;;24.05;54.84;97335.70;111735;1244;22508;-72
2023/09/29 09:48:10;;;;;;;8.40;5.20;;;;;;;23.94;54.40;97332.71;111732;1244;26447;-72
2023/09/29 09:50:44;;;;;;;7.20;5.30;;;;;;;24.04;54.34;97332.71;111750;1244;22521;-72
2023/09/29 09:53:14;;;;;;;8.30;5.20;;;;;;;23.93;53.28;97331.91;111701;1244;39191;-72
2023/09/29 09:55:46;;;;;;;7.70;5.40;;;;;;;23.87;53.54;97329.80;111759;1244;23308;-72
2023/09/29 09:58:16;;;;;;;7.70;5.70;;;;;;;23.78;53.53;97332.66;111744;1244;23396;-72
2023/09/29 10:00:52;;;;;;;12.30;5.60;;;;;;;23.86;53.79;97330.80;111754;1244;22493;-71
2023/09/29 10:03:22;;;;;;;6.20;4.80;;;;;;;23.95;53.74;97329.56;111773;1244;22567;-72
2023/09/29 10:05:52;;;;;;;7.90;5.10;;;;;;;24.02;53.61;97331.29;111779;1244;22521;-71
2023/09/29 10:08:29;;;;;;;;;;;;;;;24.11;53.66;97331.23;111684;1244;22473;-71
2023/09/29 10:11:11;;;;;;;9.40;5.10;;;;;;;24.15;53.17;97329.52;111711;1244;24309;-72
2023/09/29 10:13:40;;;;;;;10.10;5.70;;;;;;;24.01;52.76;97330.10;111751;1244;22514;-71
2023/09/29 10:16:19;;;;;;;7.50;5.00;;;;;;;24.04;52.75;97323.27;111717;1244;22549;-71
2023/09/29 10:18:56;;;;;;;7.00;4.80;;;;;;;23.87;51.55;97321.07;111764;1244;23899;-72
2023/09/29 10:21:28;;;;;;;7.60;5.00;;;;;;;23.68;51.47;97323.42;111805;1240;22492;-72
2023/09/29 10:24:00;;;;;;;8.00;5.60;;;;;;;23.64;51.69;97327.73;111705;1244;22740;-71
2023/09/29 10:26:28;;;;;;;8.20;5.40;;;;;;;23.67;52.03;97325.98;111783;1244;22525;-71
2023/09/29 10:29:01;;;;;;;9.60;5.20;;;;;;;23.67;51.88;97322.87;111747;1244;22541;-72
2023/09/29 10:31:32;;;;;;;7.90;4.90;;;;;;;23.65;51.85;97320.89;111698;1244;22523;-71
2023/09/29 10:34:00;;;;;;;8.60;5.20;;;;;;;23.61;51.21;97316.05;111653;1244;25260;-71
2023/09/29 10:36:30;;;;;;;9.30;5.70;;;;;;;23.72;52.01;97320.29;111666;1244;22621;-71
2023/09/29 10:39:03;;;;;;;10.70;5.60;;;;;;;23.83;51.47;97317.23;111698;1244;24867;-71
2023/09/29 10:41:34;;;;;;;9.10;5.30;;;;;;;23.80;51.05;97314.01;111682;1244;22548;-71
2023/09/29 10:44:06;;;;;;;8.80;5.20;;;;;;;23.77;50.96;97312.90;111721;1244;22538;-71
2023/09/29 10:46:36;;;;;;;11.10;5.20;;;;;;;23.78;51.37;97311.61;111743;1244;22526;-71
2023/09/29 10:49:05;;;;;;;7.10;4.70;;;;;;;23.86;51.97;97311.06;111759;1244;22521;-71
2023/09/29 10:51:33;;;;;;;5.80;4.70;;;;;;;24.03;52.05;97306.30;111751;1244;22555;-71
2023/09/29 10:54:06;;;;;;;8.80;4.70;;;;;;;24.08;51.10;97304.11;111680;1244;22490;-70
2023/09/29 10:56:36;;;;;;;6.20;4.70;;;;;;;24.09;50.73;97297.89;111668;1244;23005;-71
2023/09/29 10:59:08;;;;;;;7.10;4.80;;;;;;;24.16;50.72;97297.04;111646;1244;25313;-70
2023/09/29 11:01:39;;;;;;;6.40;4.60;;;;;;;24.19;49.91;97295.23;111692;1244;22519;-70
2023/09/29 11:04:11;;;;;;;9.20;5.10;;;;;;;24.24;50.02;97291.73;111697;1244;22495;-71
2023/09/29 11:06:45;;;;;;;9.30;5.30;;;;;;;24.30;50.47;97290.41;111707;1244;22748;-71
2023/09/29 11:09:19;;;;;;;7.30;5.00;;;;;;;24.31;50.35;97286.34;111721;1244;22538;-71
2023/09/29 11:11:48;;;;;;;8.60;5.50;;;;;;;24.37;50.49;97283.80;111765;1244;22574;-70
2023/09/29 11:14:19;;;;;;;8.90;4.90;;;;;;;24.40;50.05;97279.77;111671;1244;22547;-70
2023/09/29 11:16:57;;;;;;;6.90;4.90;;;;;;;24.35;49.29;97279.25;111662;1244;22481;-70
2023/09/29 11:19:30;;;;;;;8.00;4.70;;;;;;;24.26;49.20;97276.30;111669;1244;22554;-71
2023/09/29 11:22:00;;;;;;;9.40;4.90;;;;;;;24.26;49.46;97272.98;111672;1244;22489;-70
2023/09/29 11:24:43;;;;;;;9.60;5.30;;;;;;;24.35;49.33;97269.79;111710;1244;22603;-70
2023/09/29 11:27:12;;;;;;;6.90;4.90;;;;;;;24.25;48.64;97267.84;111731;1244;22700;-71
2023/09/29 11:29:43;;;;;;;7.60;5.00;;;;;;;24.22;48.63;97265.23;111713;1244;22671;-71
2023/09/29 11:32:13;;;;;;;6.50;5.40;;;;;;;24.20;48.60;97263.14;111683;1244;24198;-70
2023/09/29 11:34:42;;;;;;;7.60;4.90;;;;;;;24.20;48.76;97257.04;111644;1244;22530;-70
2023/09/29 11:37:12;;;;;;;7.80;4.90;;;;;;;24.28;49.59;97255.39;111684;1244;22489;-70